Главная страница
METAR-TAF:

METAR-TAF

Аэропорты :

Нижний Новгород, Россия

Стригино

широта: 56-19-48N, долгота: 044-00E, высота над уровнем моря: м

Текущие метеонаблюдения

Эта сводка был подготовлена 37 минут назад, в 16:30 UTC
Ветер 6 Узел от западный-юго-западный, изменяющийся между южный-юго-западный и западный
Температура 15°C
Влажность 63%
Давление 1014 hPa
Видимость 10 км и более
Рассеянная облачность на высоте 3600 фута

METAR: UWGG 191630Z 24003MPS 200V280 9999 BKN036 15/08 Q1014 R18R/090070 NOSIG RMK QFE753

Время: 20:07 (17:07 UTC)

Прогноз

Эта сводка был подготовлена 3 часа и 17 минут назад, в 13:50 UTC
Прогноз действительный с 19-го 15 UTC до 20-го 15 UTC
Ветер 10 Узел от западный-юго-западный
Видимость: 6000 м
Рассеянная облачность на высоте 1500 фута

TAF: UWGG 191350Z 1915/2015 24005MPS 6000 BKN015 TX17/2012Z TN07/2003Z

Метеонаблюдения и прогнозы для более 4000 аэропортов (сводки METAR и TAF).

Имеющиеся станции представлены на карте желтыми и красными точками.

Чтобы увидеть название станции, наведите на нее мышь.

Затем щелкните, чтобы увидеть метеонаблюдения и метеопрогнозы.

Управление картой: чтобы увеличить масштаб, щелкните зеленые кнопки с черным крестиком; чтобы уменьшить масштаб, щелкните зеленую кнопку с тире; для просмотра соседних карт щелкайте зеленые стрелки.


METAR-TAF: